This is the latest recevied weather packets stored in our database for station/object AI9F. If no packets are shown the sender has not sent any weather packets the latest 10 day(s).
| Time | Temp. | Humidity | Pressure | Rain* | Wind** | Luminosity | Snow |
|---|---|---|---|---|---|---|---|
| 1777867887 | 15° C | 59% | 1010.9 hPa | 0 mm | - | 0 W/m² | - |
| 1777867584 | 15° C | 60% | 1010.6 hPa | 0 mm | - | 0 W/m² | - |
| 1777867281 | 15.56° C | 55% | 1011.1 hPa | 0 mm | - | 0 W/m² | - |
| 1777866978 | 15.56° C | 56% | 1010.9 hPa | 0 mm | - | 0 W/m² | - |
| 1777866674 | 15.56° C | 57% | 1011 hPa | 0 mm | - | 0 W/m² | - |
| 1777866069 | 15° C | 60% | 1011 hPa | 0 mm | - | 0 W/m² | - |
| 1777865767 | 15° C | 59% | 1011.2 hPa | 0 mm | - | 0 W/m² | - |
| 1777865464 | 15° C | 59% | 1011 hPa | 0 mm | - | 0 W/m² | - |
| 1777864858 | 15° C | 58% | 1011.2 hPa | 0 mm | - | 0 W/m² | - |
| 1777864554 | 15° C | 58% | 1011 hPa | 0 mm | - | 0 W/m² | - |
| 1777863644 | 15.56° C | 55% | 1011.3 hPa | 0 mm | - | 0 W/m² | - |
| 1777845763 | 21.11° C | 36% | 1011.5 hPa | 0 mm | - | 353 W/m² | - |
| 1777844551 | 20.56° C | 39% | 1011.6 hPa | 0 mm | - | 421 W/m² | - |
| 1777844249 | 21.11° C | 37% | 1012.2 hPa | 0 mm | - | 441 W/m² | - |
| 1777843946 | 21.11° C | 38% | 1012.1 hPa | 0 mm | - | 460 W/m² | - |
| 1777843643 | 21.11° C | 40% | 1012 hPa | 0 mm | - | 474 W/m² | - |
| 1777843340 | 21.11° C | 39% | 1012.1 hPa | 0 mm | - | 490 W/m² | - |
| 1777843038 | 21.11° C | 38% | 1012.4 hPa | 0 mm | - | 503 W/m² | - |
| 1777842733 | 20.56° C | 37% | 1012.6 hPa | 0 mm | - | 516 W/m² | - |
| 1777842429 | 20.56° C | 38% | 1012.8 hPa | 0 mm | - | 530 W/m² | - |
| 1777842127 | 21.11° C | 38% | 1013 hPa | 0 mm | - | 543 W/m² | - |
| 1777841822 | 20.56° C | 38% | 1012.8 hPa | 0 mm | - | 558 W/m² | - |
| 1777840609 | 20.56° C | 40% | 1013.4 hPa | 0 mm | - | 619 W/m² | - |
| 1777840307 | 20.56° C | 39% | 1013.7 hPa | 0 mm | - | 633 W/m² | - |
| 1777840004 | 20.56° C | 40% | 1013.5 hPa | 0 mm | - | 641 W/m² | - |
* Rain latest hour (hover to see other rain measurements)
** Current wind speed in m/s (hover to see current wind gust speed)